Time;durP1;ratioP1;P1;durP2;ratioP2;P2;SDS_P1;SDS_P2;PMS_P1;PMS_P2;Temp;Humidity;BMP_temperature;BMP_pressure;BME280_temperature;BME280_humidity;BME280_pressure;Samples;Min_cycle;Max_cycle;Signal;HPM_P1;HPM_P2
2023/03/09 00:00:54;;;;;;;4.53;1.63;;;2.00;99.90;;;;;;5063437;28;20229;-85
2023/03/09 00:03:21;;;;;;;1.13;1.07;;;2.00;99.90;;;;;;5062729;28;20248;-81
2023/03/09 00:05:58;;;;;;;0.97;0.97;;;2.00;99.90;;;;;;5062287;28;20316;-82
2023/03/09 00:08:27;;;;;;;1.50;1.50;;;2.00;99.90;;;;;;5062158;28;20241;-84
2023/03/09 00:10:53;;;;;;;1.80;1.70;;;2.00;99.90;;;;;;5052862;28;20678;-83
2023/03/09 00:13:20;;;;;;;1.57;1.47;;;2.00;99.90;;;;;;5016666;28;20209;-82
2023/03/09 00:15:49;;;;;;;1.53;1.43;;;2.00;99.90;;;;;;5042894;28;20189;-83
2023/03/09 00:18:20;;;;;;;0.90;0.90;;;1.90;99.90;;;;;;5041874;28;20217;-82
2023/03/09 00:20:46;;;;;;;1.90;1.73;;;1.90;99.90;;;;;;5042866;28;20237;-82
2023/03/09 00:23:12;;;;;;;4.03;1.23;;;1.90;99.90;;;;;;5043975;28;20259;-91
2023/03/09 00:25:38;;;;;;;4.40;2.93;;;1.80;99.90;;;;;;5047063;28;20362;-89
2023/03/09 00:28:05;;;;;;;5.83;2.93;;;1.80;99.90;;;;;;5069787;28;20680;-82
2023/03/09 00:30:31;;;;;;;1.90;1.23;;;1.80;99.90;;;;;;5072065;28;20304;-90
2023/03/09 00:32:56;;;;;;;1.00;0.87;;;1.80;99.90;;;;;;5051018;28;20228;-82
2023/03/09 00:35:22;;;;;;;1.17;1.07;;;1.80;99.90;;;;;;5064788;28;20343;-82
2023/03/09 00:37:48;;;;;;;0.67;0.67;;;1.80;99.90;;;;;;5066335;28;20224;-83
2023/03/09 00:40:14;;;;;;;2.00;1.90;;;1.80;99.90;;;;;;5065050;28;20389;-83
2023/03/09 00:42:45;;;;;;;3.30;1.10;;;1.70;99.90;;;;;;5066577;28;20315;-83
2023/03/09 00:45:12;;;;;;;5.57;1.70;;;1.70;99.90;;;;;;5065423;28;20228;-90
2023/03/09 00:47:38;;;;;;;2.77;2.60;;;1.70;99.90;;;;;;5056445;28;20220;-86
2023/03/09 00:50:05;;;;;;;1.30;1.20;;;1.70;99.90;;;;;;5054377;28;20220;-83
2023/03/09 00:52:31;;;;;;;1.90;1.80;;;1.70;99.90;;;;;;5033398;28;20226;-82
2023/03/09 00:54:57;;;;;;;2.10;1.93;;;1.60;99.90;;;;;;5053098;28;20185;-82
2023/03/09 00:57:27;;;;;;;2.63;2.43;;;1.60;99.90;;;;;;5065243;28;20225;-89
2023/03/09 00:59:53;;;;;;;1.80;1.77;;;1.60;99.90;;;;;;5056064;28;20426;-89
2023/03/09 01:02:20;;;;;;;1.00;1.00;;;1.60;99.90;;;;;;5065512;28;20337;-87
2023/03/09 01:04:47;;;;;;;3.20;1.40;;;1.60;99.90;;;;;;5059484;28;20222;-87
2023/03/09 01:07:13;;;;;;;1.30;1.30;;;1.50;99.90;;;;;;5044547;28;20596;-86
2023/03/09 01:09:39;;;;;;;2.27;2.17;;;1.50;99.90;;;;;;5046152;28;20812;-83
2023/03/09 01:12:06;;;;;;;1.57;1.47;;;1.50;99.90;;;;;;5045437;28;20214;-85
2023/03/09 01:14:33;;;;;;;3.70;1.63;;;1.50;99.90;;;;;;5045791;28;20238;-83
2023/03/09 01:16:59;;;;;;;1.10;1.10;;;1.40;99.90;;;;;;5036050;28;20687;-82
2023/03/09 01:19:25;;;;;;;0.70;0.70;;;1.40;99.90;;;;;;5045231;28;20249;-84
2023/03/09 01:21:51;;;;;;;1.87;1.77;;;1.40;99.90;;;;;;5045547;28;20186;-84
2023/03/09 01:24:17;;;;;;;0.70;0.70;;;1.30;99.90;;;;;;5045413;28;20884;-83
2023/03/09 01:26:43;;;;;;;1.80;0.97;;;1.30;99.90;;;;;;5045242;28;20759;-81
2023/03/09 01:29:08;;;;;;;1.93;1.83;;;1.20;99.90;;;;;;5044879;28;20210;-82
2023/03/09 01:31:34;;;;;;;3.23;1.33;;;1.20;99.90;;;;;;5045058;28;20222;-82
2023/03/09 01:34:00;;;;;;;1.67;1.57;;;1.10;99.90;;;;;;5034756;28;20190;-81
2023/03/09 01:36:25;;;;;;;2.07;1.93;;;1.10;99.90;;;;;;5044847;28;20283;-89
2023/03/09 01:38:51;;;;;;;1.87;1.77;;;1.00;99.90;;;;;;5042680;28;20221;-82
2023/03/09 01:41:19;;;;;;;1.17;1.17;;;1.00;99.90;;;;;;5047585;28;20252;-84
2023/03/09 01:43:47;;;;;;;2.57;2.30;;;0.90;99.90;;;;;;5044696;28;20308;-88
2023/03/09 01:46:16;;;;;;;0.70;0.70;;;0.90;99.90;;;;;;5043833;28;20687;-85
2023/03/09 01:48:42;;;;;;;1.80;1.67;;;0.90;99.90;;;;;;5045596;28;20194;-83
2023/03/09 01:51:08;;;;;;;1.97;1.87;;;0.90;99.90;;;;;;5029525;28;20679;-83
2023/03/09 01:53:34;;;;;;;1.23;1.23;;;1.00;99.90;;;;;;5044584;28;20233;-82
2023/03/09 01:56:01;;;;;;;1.60;1.00;;;1.00;99.90;;;;;;5044546;28;20229;-81
2023/03/09 01:58:30;;;;;;;1.83;1.83;;;1.00;99.90;;;;;;5053060;28;20214;-81
2023/03/09 02:00:56;;;;;;;1.70;1.63;;;1.10;99.90;;;;;;5051196;28;20241;-82
2023/03/09 02:03:28;;;;;;;1.47;1.47;;;1.00;99.90;;;;;;5028763;28;20674;-87
2023/03/09 02:06:06;;;;;;;2.27;1.20;;;1.00;99.90;;;;;;5064246;28;20225;-86
2023/03/09 02:08:32;;;;;;;1.53;0.87;;;1.00;99.90;;;;;;5035056;28;20746;-89
2023/03/09 02:11:05;;;;;;;1.53;1.43;;;1.00;99.90;;;;;;5015519;28;20576;-85
2023/03/09 02:13:38;;;;;;;1.30;1.30;;;1.00;99.90;;;;;;5044265;28;20224;-90
2023/03/09 02:16:04;;;;;;;1.77;1.77;;;1.00;99.90;;;;;;5030635;28;20200;-82
2023/03/09 02:18:30;;;;;;;1.20;1.10;;;1.00;99.90;;;;;;5044181;28;20218;-82
2023/03/09 02:21:11;;;;;;;1.33;1.33;;;1.00;99.90;;;;;;5044205;28;20226;-81
2023/03/09 02:23:59;;;;;;;1.00;1.00;;;1.00;99.90;;;;;;5057092;28;20671;-89
2023/03/09 02:26:28;;;;;;;3.73;1.83;;;1.10;99.90;;;;;;5028675;28;20284;-83
2023/03/09 02:28:54;;;;;;;1.40;1.23;;;1.10;99.90;;;;;;5043791;28;20296;-82
2023/03/09 02:31:20;;;;;;;2.03;1.77;;;1.10;99.90;;;;;;5025624;28;20309;-83
2023/03/09 02:33:46;;;;;;;1.23;1.23;;;1.10;99.90;;;;;;5044748;28;20182;-82
2023/03/09 02:36:12;;;;;;;2.10;2.00;;;1.20;99.90;;;;;;5049222;28;20260;-85
2023/03/09 02:38:38;;;;;;;2.40;2.30;;;1.30;99.90;;;;;;5019144;28;20218;-89
2023/03/09 02:41:05;;;;;;;1.07;0.97;;;1.30;99.90;;;;;;5066525;28;20221;-82
2023/03/09 02:43:38;;;;;;;5.53;2.20;;;1.30;99.90;;;;;;5044085;28;20697;-85
2023/03/09 02:46:04;;;;;;;3.00;2.13;;;1.30;99.90;;;;;;5043510;28;20660;-84
2023/03/09 02:48:29;;;;;;;2.57;1.93;;;1.30;99.90;;;;;;5043990;28;20248;-82
2023/03/09 02:50:55;;;;;;;1.50;1.40;;;1.30;99.90;;;;;;5043891;28;20284;-92
2023/03/09 02:53:21;;;;;;;0.70;0.70;;;1.20;99.90;;;;;;5043829;28;20660;-84
2023/03/09 02:55:46;;;;;;;5.07;2.30;;;1.30;99.90;;;;;;5038197;28;20218;-85
2023/03/09 02:58:12;;;;;;;2.10;2.00;;;1.30;99.90;;;;;;5032973;28;20221;-88
2023/03/09 03:00:38;;;;;;;0.97;0.90;;;1.30;99.90;;;;;;5054704;28;20185;-86
2023/03/09 03:03:04;;;;;;;3.43;2.13;;;1.30;99.90;;;;;;5053682;28;20217;-83
2023/03/09 03:05:30;;;;;;;2.03;1.93;;;1.40;99.90;;;;;;5038816;28;20237;-82
2023/03/09 03:07:55;;;;;;;3.30;1.13;;;1.40;99.90;;;;;;5054512;28;20238;-95
2023/03/09 03:10:21;;;;;;;3.03;2.20;;;1.40;99.90;;;;;;5048627;28;20321;-83
2023/03/09 03:12:47;;;;;;;2.03;1.93;;;1.40;99.90;;;;;;5042500;28;20248;-81
2023/03/09 03:15:12;;;;;;;1.40;1.40;;;1.40;99.90;;;;;;5029434;28;20222;-87
2023/03/09 03:17:38;;;;;;;2.40;2.20;;;1.40;99.90;;;;;;5041667;28;20585;-86
2023/03/09 03:20:11;;;;;;;3.67;2.37;;;1.40;99.90;;;;;;5033166;28;20222;-85
2023/03/09 03:22:37;;;;;;;2.77;2.50;;;1.40;99.90;;;;;;5041117;28;20214;-87
2023/03/09 03:25:02;;;;;;;2.40;2.20;;;1.40;99.90;;;;;;5032069;28;20190;-83
2023/03/09 03:27:28;;;;;;;1.53;1.43;;;1.50;99.90;;;;;;5034410;28;20249;-86
2023/03/09 03:29:54;;;;;;;4.60;1.50;;;1.50;99.90;;;;;;5040888;28;20233;-93
2023/03/09 03:32:20;;;;;;;1.57;1.43;;;1.50;99.90;;;;;;5032839;28;20217;-81
2023/03/09 03:34:45;;;;;;;3.07;2.87;;;1.60;99.90;;;;;;5041271;28;20218;-81
2023/03/09 03:37:12;;;;;;;1.00;1.00;;;1.60;99.90;;;;;;5032281;28;20239;-89
2023/03/09 03:39:38;;;;;;;4.30;1.73;;;1.60;99.90;;;;;;5042092;28;20247;-83
2023/03/09 03:42:03;;;;;;;1.67;1.50;;;1.60;99.90;;;;;;5040207;28;20832;-87
2023/03/09 03:44:29;;;;;;;1.43;1.33;;;1.50;99.90;;;;;;5048423;28;20730;-82
2023/03/09 03:46:55;;;;;;;3.03;2.73;;;1.50;99.90;;;;;;5024568;28;20225;-82
2023/03/09 03:49:21;;;;;;;1.53;1.43;;;1.50;99.90;;;;;;5031801;28;20209;-83
2023/03/09 03:51:47;;;;;;;1.93;1.83;;;1.50;99.90;;;;;;5042044;28;20193;-82
2023/03/09 03:54:12;;;;;;;4.63;4.33;;;1.50;99.90;;;;;;5041137;28;20713;-92
2023/03/09 03:56:38;;;;;;;1.97;1.97;;;1.50;99.90;;;;;;5040330;28;20291;-82
2023/03/09 03:59:04;;;;;;;2.07;1.97;;;1.40;99.90;;;;;;5040384;28;20236;-81
2023/03/09 04:01:30;;;;;;;1.90;1.80;;;1.40;99.90;;;;;;5033161;28;20264;-87
2023/03/09 04:03:55;;;;;;;2.33;2.23;;;1.40;99.90;;;;;;5040246;28;20667;-85
2023/03/09 04:06:21;;;;;;;1.57;1.50;;;1.40;99.90;;;;;;5040850;28;20329;-83
2023/03/09 04:08:47;;;;;;;3.80;3.50;;;1.40;99.90;;;;;;5049021;28;20267;-82
2023/03/09 04:11:13;;;;;;;3.23;1.37;;;1.40;99.90;;;;;;5058639;28;20273;-84
2023/03/09 04:13:42;;;;;;;3.37;2.30;;;1.40;99.90;;;;;;5056539;28;20701;-85
2023/03/09 04:16:08;;;;;;;2.60;2.40;;;1.40;99.90;;;;;;5057745;28;20442;-85
2023/03/09 04:18:33;;;;;;;1.37;1.37;;;1.30;99.90;;;;;;5039774;28;20189;-84
2023/03/09 04:20:59;;;;;;;1.70;1.20;;;1.30;99.90;;;;;;5069415;28;20804;-82
2023/03/09 04:23:25;;;;;;;2.43;2.33;;;1.30;99.90;;;;;;5069146;28;20328;-82
2023/03/09 04:25:59;;;;;;;10.80;3.90;;;1.30;99.90;;;;;;5053540;28;20307;-91
2023/03/09 04:28:25;;;;;;;3.13;2.83;;;1.30;99.90;;;;;;5068455;28;20184;-82
2023/03/09 04:30:51;;;;;;;4.13;3.83;;;1.30;99.90;;;;;;5069533;28;20181;-83
2023/03/09 04:33:17;;;;;;;2.77;2.63;;;1.30;99.90;;;;;;5053728;28;20220;-82
2023/03/09 04:35:43;;;;;;;12.40;2.63;;;1.40;99.90;;;;;;5054791;28;20220;-91
2023/03/09 04:38:09;;;;;;;8.70;3.07;;;1.30;99.90;;;;;;5077780;28;20265;-86
2023/03/09 04:40:35;;;;;;;3.70;3.27;;;1.40;99.90;;;;;;5068736;28;20366;-82
2023/03/09 04:43:01;;;;;;;3.20;2.20;;;1.30;99.90;;;;;;5069289;28;20722;-82
2023/03/09 04:45:27;;;;;;;2.50;2.40;;;1.30;99.90;;;;;;5058582;28;20229;-83
2023/03/09 04:47:53;;;;;;;2.73;1.97;;;1.30;99.90;;;;;;5044180;28;20244;-82
2023/03/09 04:50:19;;;;;;;6.03;1.53;;;1.20;99.90;;;;;;5040719;28;20220;-87
2023/03/09 04:52:45;;;;;;;3.40;1.67;;;1.20;99.90;;;;;;5032056;28;20220;-82
2023/03/09 04:55:10;;;;;;;1.17;1.17;;;1.20;99.90;;;;;;5047651;28;20556;-91
2023/03/09 04:57:36;;;;;;;4.50;3.57;;;1.30;99.90;;;;;;5049793;28;20647;-85
2023/03/09 05:00:07;;;;;;;6.50;2.73;;;1.30;99.90;;;;;;5048866;28;20214;-83
2023/03/09 05:02:33;;;;;;;3.83;3.33;;;1.30;99.90;;;;;;5048848;28;20224;-81
2023/03/09 05:04:59;;;;;;;3.13;2.93;;;1.30;99.90;;;;;;5048382;28;20221;-82
2023/03/09 05:07:25;;;;;;;2.43;2.23;;;1.30;99.90;;;;;;5048722;28;20218;-88
2023/03/09 05:09:50;;;;;;;3.37;3.07;;;1.30;99.90;;;;;;5039497;28;20239;-89
2023/03/09 05:12:16;;;;;;;2.10;2.00;;;1.40;99.90;;;;;;5048841;28;20229;-87
2023/03/09 05:14:42;;;;;;;3.63;2.63;;;1.30;99.90;;;;;;5045104;28;20214;-84
2023/03/09 05:17:07;;;;;;;7.67;3.10;;;1.30;99.90;;;;;;5047629;28;20469;-87
2023/03/09 05:19:36;;;;;;;2.60;2.47;;;1.30;99.90;;;;;;5037779;28;20645;-85
2023/03/09 05:22:02;;;;;;;1.87;1.77;;;1.20;99.90;;;;;;5047922;28;20194;-81
2023/03/09 05:24:28;;;;;;;3.27;2.57;;;1.20;99.90;;;;;;5034492;28;20363;-87
2023/03/09 05:26:54;;;;;;;3.03;2.73;;;1.20;99.90;;;;;;5045355;28;20271;-84
2023/03/09 05:29:20;;;;;;;6.33;4.37;;;1.20;99.90;;;;;;5037986;28;20312;-82
2023/03/09 05:31:45;;;;;;;5.00;3.37;;;1.30;99.90;;;;;;5014852;28;20493;-81
2023/03/09 05:34:11;;;;;;;3.17;2.97;;;1.40;99.90;;;;;;5035668;28;20208;-81
2023/03/09 05:36:37;;;;;;;4.17;3.03;;;1.30;99.90;;;;;;5040150;28;20229;-81
2023/03/09 05:39:03;;;;;;;3.30;2.57;;;1.30;99.90;;;;;;5053201;28;20773;-82
2023/03/09 05:41:28;;;;;;;2.93;2.77;;;1.30;99.90;;;;;;5064953;28;20643;-81
2023/03/09 05:43:54;;;;;;;1.13;1.13;;;1.30;99.90;;;;;;5026783;28;20225;-88
2023/03/09 05:46:23;;;;;;;3.70;3.00;;;1.20;99.90;;;;;;5069530;28;20225;-82
2023/03/09 05:48:48;;;;;;;1.63;1.50;;;1.10;99.90;;;;;;5042817;28;20636;-83
2023/03/09 05:51:15;;;;;;;2.40;2.30;;;1.00;99.90;;;;;;5041929;28;20440;-81
2023/03/09 05:53:41;;;;;;;2.50;1.80;;;1.00;99.90;;;;;;5043664;28;20428;-81
2023/03/09 05:56:07;;;;;;;1.50;1.47;;;1.00;99.90;;;;;;5045115;28;20225;-85
2023/03/09 05:58:33;;;;;;;1.63;1.43;;;0.90;99.90;;;;;;5044471;28;20236;-92
2023/03/09 06:00:59;;;;;;;1.13;1.13;;;0.90;99.90;;;;;;5043336;28;20729;-81
2023/03/09 06:03:26;;;;;;;2.07;2.00;;;0.90;99.90;;;;;;5035419;28;20731;-81
2023/03/09 06:06:04;;;;;;;2.27;1.97;;;0.80;99.90;;;;;;5044635;28;20287;-85
2023/03/09 06:08:31;;;;;;;3.27;3.03;;;0.90;99.90;;;;;;5044758;28;20250;-84
2023/03/09 06:10:59;;;;;;;4.07;3.80;;;0.90;99.90;;;;;;5031012;28;20694;-82
2023/03/09 06:13:25;;;;;;;5.60;2.13;;;0.90;99.90;;;;;;5031945;28;20243;-85
2023/03/09 06:15:51;;;;;;;6.07;5.60;;;0.90;99.90;;;;;;5044990;28;20325;-92
2023/03/09 06:18:17;;;;;;;5.27;3.13;;;0.90;99.90;;;;;;5040906;28;20220;-84
2023/03/09 06:20:44;;;;;;;2.83;2.67;;;0.90;99.90;;;;;;5059744;28;20788;-85
2023/03/09 06:23:10;;;;;;;5.40;2.67;;;1.00;99.90;;;;;;5026943;28;20209;-87
2023/03/09 06:25:39;;;;;;;3.07;2.03;;;1.00;99.90;;;;;;5054331;28;20240;-84
2023/03/09 06:28:05;;;;;;;1.43;1.33;;;1.00;99.90;;;;;;5043790;28;20719;-87
2023/03/09 06:30:31;;;;;;;6.37;2.10;;;0.90;99.90;;;;;;5046099;28;20974;-93
2023/03/09 06:32:57;;;;;;;3.67;2.47;;;0.80;99.90;;;;;;5037482;28;20226;-87
2023/03/09 06:35:24;;;;;;;3.00;2.03;;;0.80;99.90;;;;;;5013859;28;20351;-87
2023/03/09 06:37:50;;;;;;;2.37;2.20;;;0.90;99.90;;;;;;5050016;28;20228;-88
2023/03/09 06:40:17;;;;;;;4.00;3.77;;;0.90;99.90;;;;;;5056110;28;20189;-86
2023/03/09 06:42:43;;;;;;;1.90;1.77;;;0.90;99.90;;;;;;5052017;28;20189;-86
2023/03/09 06:45:09;;;;;;;2.07;1.87;;;0.90;99.90;;;;;;5052861;28;20237;-86
2023/03/09 06:47:35;;;;;;;1.83;1.73;;;0.90;99.90;;;;;;5037789;28;20703;-89
2023/03/09 06:50:01;;;;;;;7.07;2.10;;;0.90;99.90;;;;;;5035360;28;20218;-89
2023/03/09 06:52:27;;;;;;;1.47;1.47;;;1.00;99.90;;;;;;5042798;28;20655;-85
2023/03/09 06:54:53;;;;;;;7.30;1.13;;;1.00;99.90;;;;;;5021497;28;20199;-88
2023/03/09 06:57:19;;;;;;;2.27;2.17;;;1.10;99.90;;;;;;5043794;28;20560;-93
2023/03/09 06:59:45;;;;;;;1.90;1.80;;;1.20;99.90;;;;;;5024373;28;20263;-86
2023/03/09 07:02:12;;;;;;;8.53;2.20;;;1.90;99.90;;;;;;5049641;28;20332;-93
2023/03/09 07:04:38;;;;;;;3.53;3.23;;;3.20;99.90;;;;;;5044690;28;20601;-85
2023/03/09 07:07:03;;;;;;;2.60;2.27;;;4.50;99.90;;;;;;5045278;28;20209;-85
2023/03/09 07:09:31;;;;;;;2.17;2.07;;;5.70;99.90;;;;;;5041004;28;20295;-89
2023/03/09 07:11:58;;;;;;;3.93;2.37;;;6.80;99.90;;;;;;5042219;28;20221;-85
2023/03/09 07:14:25;;;;;;;6.17;3.60;;;7.40;99.90;;;;;;5041276;28;20217;-85
2023/03/09 07:16:55;;;;;;;5.80;2.63;;;7.60;99.90;;;;;;5048514;28;20224;-87
2023/03/09 07:19:22;;;;;;;4.80;4.40;;;7.40;99.90;;;;;;5049835;28;20197;-89
2023/03/09 07:21:48;;;;;;;3.93;3.53;;;7.40;99.90;;;;;;5050696;28;20238;-86
2023/03/09 07:24:14;;;;;;;5.50;2.67;;;6.80;99.90;;;;;;5050797;28;20213;-88
2023/03/09 07:26:40;;;;;;;3.80;3.60;;;6.20;99.90;;;;;;5051334;28;20327;-84
2023/03/09 07:29:05;;;;;;;7.67;3.40;;;6.20;99.90;;;;;;5062314;28;20829;-85
2023/03/09 07:31:31;;;;;;;3.70;3.33;;;6.20;99.90;;;;;;5062724;28;20698;-86
2023/03/09 07:33:57;;;;;;;2.37;2.17;;;6.50;99.90;;;;;;5063184;28;20486;-85
2023/03/09 07:36:24;;;;;;;3.63;2.60;;;6.70;99.90;;;;;;5053216;28;20296;-87
2023/03/09 07:38:50;;;;;;;8.63;4.33;;;6.50;99.90;;;;;;5055325;28;20217;-88
2023/03/09 07:41:16;;;;;;;4.03;3.77;;;5.70;99.90;;;;;;5050882;28;20219;-86
2023/03/09 07:43:45;;;;;;;2.10;2.00;;;5.50;99.90;;;;;;5052646;28;20231;-86
2023/03/09 07:46:13;;;;;;;3.43;3.07;;;5.30;99.90;;;;;;5061876;28;20205;-88
2023/03/09 07:48:40;;;;;;;3.30;2.97;;;5.60;99.90;;;;;;5062439;28;20188;-85
2023/03/09 07:51:07;;;;;;;2.93;2.30;;;5.70;99.90;;;;;;5050449;28;20577;-83
2023/03/09 07:53:37;;;;;;;5.97;3.40;;;5.70;99.90;;;;;;5048389;28;20212;-85
2023/03/09 07:56:04;;;;;;;5.90;2.87;;;5.60;99.90;;;;;;5050173;28;20694;-84
2023/03/09 07:58:31;;;;;;;3.30;2.33;;;5.50;99.90;;;;;;5086129;28;20327;-91
2023/03/09 08:00:57;;;;;;;7.67;4.40;;;5.30;99.90;;;;;;5067670;28;20185;-87
2023/03/09 08:03:23;;;;;;;5.30;3.10;;;5.80;99.90;;;;;;5056935;28;20209;-87
2023/03/09 08:05:49;;;;;;;5.53;3.20;;;6.00;99.90;;;;;;5058995;28;20382;-87
2023/03/09 08:08:16;;;;;;;4.70;2.60;;;5.80;99.90;;;;;;5071360;28;20712;-90
2023/03/09 08:10:49;;;;;;;2.70;2.50;;;5.80;99.90;;;;;;5035667;28;20279;-88
2023/03/09 08:13:15;;;;;;;2.33;2.23;;;5.80;99.90;;;;;;5054006;28;20205;-92
2023/03/09 08:15:41;;;;;;;4.87;3.23;;;6.30;99.90;;;;;;5038245;28;20214;-88
2023/03/09 08:18:06;;;;;;;2.90;2.70;;;6.60;99.90;;;;;;5057766;28;20223;-89
2023/03/09 08:20:32;;;;;;;6.93;3.87;;;7.00;99.90;;;;;;5035952;28;20221;-95
2023/03/09 08:22:58;;;;;;;2.43;2.23;;;6.50;99.90;;;;;;5035494;28;20213;-92
2023/03/09 08:25:24;;;;;;;1.50;1.40;;;6.10;99.90;;;;;;5052249;28;20217;-87
2023/03/09 08:27:51;;;;;;;2.67;1.73;;;5.60;99.90;;;;;;5066422;28;20277;-87
2023/03/09 08:30:20;;;;;;;2.07;1.87;;;5.20;99.90;;;;;;5070410;28;20225;-88
2023/03/09 08:32:47;;;;;;;2.67;2.07;;;5.50;99.90;;;;;;5052588;28;20686;-90
2023/03/09 08:35:15;;;;;;;3.03;2.00;;;5.60;99.90;;;;;;5068256;28;20630;-92
2023/03/09 08:37:40;;;;;;;5.83;3.37;;;6.00;99.90;;;;;;5053746;28;20221;-89
2023/03/09 08:40:07;;;;;;;2.87;2.60;;;6.20;99.90;;;;;;5059332;28;20178;-89
2023/03/09 08:42:33;;;;;;;3.20;2.03;;;6.10;99.90;;;;;;5071689;28;20276;-88
2023/03/09 08:45:00;;;;;;;1.23;1.23;;;6.00;99.90;;;;;;5067497;28;20427;-90
2023/03/09 08:47:26;;;;;;;4.60;3.17;;;6.50;99.90;;;;;;5058863;28;20228;-91
2023/03/09 08:49:51;;;;;;;3.50;2.43;;;6.50;99.90;;;;;;5043491;28;20576;-87
2023/03/09 08:52:17;;;;;;;3.23;3.03;;;6.80;99.90;;;;;;5058673;28;20189;-87
2023/03/09 08:54:43;;;;;;;4.87;3.03;;;6.70;99.90;;;;;;5060484;28;20186;-86
2023/03/09 08:57:09;;;;;;;2.47;2.17;;;7.00;99.90;;;;;;5067234;28;20244;-89
2023/03/09 08:59:34;;;;;;;2.43;2.23;;;6.80;99.90;;;;;;5052934;28;20765;-85
2023/03/09 09:02:01;;;;;;;2.87;2.33;;;6.70;99.90;;;;;;5062669;28;20717;-88
2023/03/09 09:04:27;;;;;;;1.80;1.67;;;6.40;99.90;;;;;;5063848;28;20275;-85
2023/03/09 09:06:53;;;;;;;4.40;2.20;;;5.80;99.90;;;;;;5052549;28;20213;-89
2023/03/09 09:09:19;;;;;;;2.37;2.07;;;5.70;99.90;;;;;;5061771;28;20245;-92
2023/03/09 09:11:46;;;;;;;1.67;1.53;;;5.50;99.90;;;;;;5036608;28;20235;-90
2023/03/09 09:14:12;;;;;;;5.40;1.50;;;5.40;99.90;;;;;;5052611;28;21018;-91
2023/03/09 09:16:37;;;;;;;2.97;2.77;;;5.30;99.90;;;;;;5055575;28;20743;-90
2023/03/09 09:19:03;;;;;;;3.40;1.73;;;5.00;99.90;;;;;;5066038;28;20205;-92
2023/03/09 09:21:30;;;;;;;1.77;1.67;;;4.90;99.90;;;;;;5065946;28;20221;-89
2023/03/09 09:23:56;;;;;;;2.73;1.63;;;4.90;99.90;;;;;;5056998;28;20217;-88
2023/03/09 09:26:22;;;;;;;2.23;2.03;;;4.90;99.90;;;;;;5055399;28;20706;-90
2023/03/09 09:28:48;;;;;;;3.30;2.27;;;5.00;99.90;;;;;;5052410;28;20346;-87
2023/03/09 09:31:19;;;;;;;3.30;2.67;;;5.00;99.90;;;;;;5065430;28;20200;-86
2023/03/09 09:33:46;;;;;;;3.10;1.73;;;5.00;99.90;;;;;;5054491;28;20547;-91
2023/03/09 09:36:14;;;;;;;3.07;2.40;;;5.10;99.90;;;;;;5046626;28;20242;-86
2023/03/09 09:38:42;;;;;;;1.43;1.33;;;5.10;99.90;;;;;;5055817;28;20771;-86
2023/03/09 09:41:14;;;;;;;2.30;0.90;;;5.20;99.90;;;;;;5053588;28;20270;-89
2023/03/09 09:43:42;;;;;;;2.23;1.70;;;5.30;99.90;;;;;;5049672;28;20338;-86
2023/03/09 09:46:12;;;;;;;2.67;1.90;;;5.30;99.90;;;;;;5063998;28;20693;-86
2023/03/09 09:48:40;;;;;;;4.37;2.37;;;5.30;99.90;;;;;;5065011;28;20676;-86
2023/03/09 09:51:21;;;;;;;2.00;1.90;;;5.30;99.90;;;;;;5055747;28;20217;-87
2023/03/09 09:54:08;;;;;;;1.37;1.27;;;5.30;99.90;;;;;;5064721;28;20235;-89
2023/03/09 09:56:50;;;;;;;2.27;2.13;;;5.10;99.90;;;;;;5054247;28;20255;-89
2023/03/09 09:59:26;;;;;;;1.60;1.50;;;5.30;99.90;;;;;;5064514;28;20670;-88
2023/03/09 10:02:01;;;;;;;1.40;1.30;;;5.40;99.90;;;;;;5065137;28;20213;-92
2023/03/09 10:04:35;;;;;;;1.23;1.13;;;5.40;99.90;;;;;;5067368;28;20224;-89
2023/03/09 10:07:12;;;;;;;4.87;2.33;;;5.30;99.90;;;;;;5046960;28;20282;-87
2023/03/09 10:09:42;;;;;;;2.57;2.37;;;5.30;99.90;;;;;;5066046;28;20285;-89
2023/03/09 10:12:13;;;;;;;1.73;1.63;;;5.50;99.90;;;;;;5050401;28;20229;-86
2023/03/09 10:14:54;;;;;;;2.53;1.10;;;5.80;99.90;;;;;;5048428;28;20675;-92
2023/03/09 10:17:38;;;;;;;1.37;1.27;;;5.80;99.90;;;;;;5045927;28;20217;-90
2023/03/09 10:20:22;;;;;;;2.57;1.97;;;5.90;99.90;;;;;;5046417;28;20213;-85
2023/03/09 10:22:50;;;;;;;2.17;2.03;;;5.90;99.90;;;;;;5032442;28;20568;-91
2023/03/09 10:25:20;;;;;;;1.00;1.00;;;6.10;99.90;;;;;;5041383;28;20181;-89
2023/03/09 10:28:01;;;;;;;2.67;1.90;;;5.90;99.90;;;;;;5026127;28;20218;-91
2023/03/09 10:30:35;;;;;;;1.87;1.77;;;6.00;99.90;;;;;;5037315;28;20679;-90
2023/03/09 10:33:19;;;;;;;1.60;1.50;;;5.70;99.90;;;;;;5035817;28;20691;-85
2023/03/09 10:35:58;;;;;;;1.50;1.40;;;5.70;99.90;;;;;;5046216;28;20217;-86
2023/03/09 10:38:23;;;;;;;3.37;3.20;;;5.90;99.90;;;;;;5044600;28;20260;-89
2023/03/09 10:40:54;;;;;;;1.93;1.80;;;5.70;99.90;;;;;;5035737;28;20661;-88
2023/03/09 10:43:27;;;;;;;2.70;2.10;;;5.70;99.90;;;;;;5062139;28;20217;-91
2023/03/09 10:45:54;;;;;;;2.20;2.00;;;5.70;99.90;;;;;;5053210;28;20237;-86
2023/03/09 10:48:26;;;;;;;1.37;1.27;;;5.90;99.90;;;;;;5064480;28;20324;-89
2023/03/09 10:50:58;;;;;;;2.47;1.70;;;6.20;99.90;;;;;;5053640;28;20643;-91
2023/03/09 10:53:31;;;;;;;2.50;2.03;;;6.30;99.90;;;;;;5047686;28;20558;-86
2023/03/09 10:56:23;;;;;;;4.80;2.20;;;6.60;99.90;;;;;;5066640;28;20299;-84
2023/03/09 10:59:06;;;;;;;1.93;1.83;;;6.70;99.90;;;;;;5046774;28;20214;-85
2023/03/09 11:01:35;;;;;;;2.43;1.70;;;6.50;99.90;;;;;;5040849;28;20348;-86
2023/03/09 11:04:03;;;;;;;1.10;1.10;;;6.80;99.90;;;;;;5043296;28;20262;-88
2023/03/09 11:06:36;;;;;;;0.97;0.97;;;6.90;99.90;;;;;;5044191;28;20231;-88
2023/03/09 11:09:26;;;;;;;2.90;2.30;;;6.40;99.90;;;;;;5048309;28;20318;-86
2023/03/09 11:12:06;;;;;;;3.63;1.43;;;6.20;99.90;;;;;;5042048;28;20305;-86
2023/03/09 11:14:32;;;;;;;3.03;2.03;;;6.30;99.90;;;;;;5034195;28;20273;-87
2023/03/09 11:17:00;;;;;;;2.93;2.40;;;6.10;99.90;;;;;;5045827;28;20209;-86
2023/03/09 11:19:28;;;;;;;2.97;2.67;;;5.90;99.90;;;;;;5044305;28;20675;-86
2023/03/09 11:22:13;;;;;;;1.70;1.47;;;5.90;99.90;;;;;;5035513;28;20240;-90
2023/03/09 11:24:46;;;;;;;5.07;0.97;;;5.80;99.90;;;;;;5033980;28;20222;-88
2023/03/09 11:27:25;;;;;;;0.67;0.60;;;5.60;99.90;;;;;;5044820;28;20287;-86
2023/03/09 11:30:01;;;;;;;3.30;1.37;;;5.60;99.90;;;;;;5032271;28;20654;-85
2023/03/09 11:32:27;;;;;;;3.07;1.57;;;5.50;99.90;;;;;;5043205;28;20205;-85
2023/03/09 11:34:53;;;;;;;5.10;4.33;;;5.60;99.90;;;;;;5018247;28;20273;-90
2023/03/09 11:37:37;;;;;;;2.10;2.00;;;5.60;99.90;;;;;;5024232;28;20658;-85
2023/03/09 11:40:28;;;;;;;1.93;1.83;;;5.70;99.90;;;;;;5037425;28;20308;-88
2023/03/09 11:43:20;;;;;;;1.77;1.50;;;5.70;99.90;;;;;;5042683;28;20511;-87
2023/03/09 11:45:46;;;;;;;0.80;0.80;;;5.80;99.90;;;;;;5055719;28;20286;-88
2023/03/09 11:48:22;;;;;;;1.67;1.57;;;5.60;99.90;;;;;;5052107;28;20217;-87
2023/03/09 11:50:59;;;;;;;1.57;1.43;;;5.40;99.90;;;;;;5047096;28;20227;-87
2023/03/09 11:53:34;;;;;;;1.60;1.50;;;5.50;99.90;;;;;;5062425;28;20196;-90
2023/03/09 11:56:15;;;;;;;3.13;1.67;;;5.60;99.90;;;;;;5070092;28;20260;-87
2023/03/09 11:58:45;;;;;;;3.37;2.97;;;5.60;99.90;;;;;;5029207;28;20237;-85
2023/03/09 12:01:58;;;;;;;2.30;1.70;;;5.60;99.90;;;;;;5031868;28;20283;-86
2023/03/09 12:04:24;;;;;;;2.17;1.73;;;5.70;99.90;;;;;;5043904;28;20626;-89
2023/03/09 12:06:57;;;;;;;1.77;1.67;;;5.70;99.90;;;;;;5043824;28;20233;-86
2023/03/09 12:09:52;;;;;;;2.10;1.90;;;5.70;99.90;;;;;;5031209;28;20242;-86
2023/03/09 12:12:42;;;;;;;2.03;1.83;;;5.70;99.90;;;;;;5031748;28;20222;-87
2023/03/09 12:15:30;;;;;;;2.97;1.70;;;5.80;99.90;;;;;;5039714;28;20220;-85
2023/03/09 12:17:58;;;;;;;0.90;0.70;;;5.80;99.90;;;;;;5034613;28;20218;-83
2023/03/09 12:20:33;;;;;;;1.40;1.30;;;5.80;99.90;;;;;;5032788;28;20190;-82
2023/03/09 12:22:58;;;;;;;2.43;2.20;;;5.90;99.90;;;;;;5040185;28;20178;-82
2023/03/09 12:25:25;;;;;;;3.10;1.67;;;5.90;99.90;;;;;;5039401;28;20221;-85
2023/03/09 12:27:59;;;;;;;3.87;2.60;;;5.90;99.90;;;;;;5020389;28;20324;-85
2023/03/09 12:30:31;;;;;;;2.70;1.83;;;5.70;99.90;;;;;;5043734;28;20344;-85
2023/03/09 12:33:00;;;;;;;1.20;1.10;;;5.60;99.90;;;;;;5025970;28;20576;-87
2023/03/09 12:35:40;;;;;;;1.53;1.50;;;5.70;99.90;;;;;;5053402;28;20209;-88
2023/03/09 12:38:12;;;;;;;2.03;1.93;;;5.70;99.90;;;;;;5032690;28;20530;-83
2023/03/09 12:40:38;;;;;;;2.73;2.10;;;5.60;99.90;;;;;;5044505;28;20321;-86
2023/03/09 12:43:13;;;;;;;1.33;1.20;;;5.60;99.90;;;;;;5033699;28;20217;-86
2023/03/09 12:45:39;;;;;;;1.30;1.27;;;5.60;99.90;;;;;;5048345;28;20229;-87
2023/03/09 12:48:14;;;;;;;3.50;1.80;;;5.70;99.90;;;;;;5039946;28;20236;-85
2023/03/09 12:50:46;;;;;;;2.10;1.20;;;5.60;99.90;;;;;;5046705;28;20609;-93
2023/03/09 12:53:20;;;;;;;1.70;1.60;;;5.50;99.90;;;;;;5045531;28;21030;-90
2023/03/09 12:55:48;;;;;;;2.80;1.53;;;5.60;99.90;;;;;;5046964;28;20226;-89
2023/03/09 12:58:19;;;;;;;1.60;1.50;;;5.60;99.90;;;;;;5047357;28;20283;-90
2023/03/09 13:00:58;;;;;;;3.27;2.37;;;5.40;99.90;;;;;;5041186;28;20225;-89
2023/03/09 13:03:31;;;;;;;1.50;1.40;;;5.40;99.90;;;;;;5055531;28;20278;-88
2023/03/09 13:05:59;;;;;;;1.07;1.00;;;5.20;99.90;;;;;;5055279;28;20227;-90